Land O Lakes, Florida
Current Conditions -  °F | °C
As of 9:53 PM on Wednesday 22 Oct 2014 (Local Time) from KBKV Reporting Station
Clear Clear  
Wind Chill: 69°   Ceiling: Unl
Heat Index: 69°   Visibility: 10mi
Dew Point: 59°   Wind: 10mph
Humidity: 70%   Direction: 50°NE
Pressure: 30"   Gusts: NA
Location:  28.28°N, 82.45°W
Report Text: KBKV 230153Z AUTO 05009KT 10SM CLR 21/15 A3000 RMK AO2 SLP159 T02060150
Loading
Personal Weather Stations






























Interactive Weather Map
Tropical Storm Tracking
New forecast layout! Learn more

10-Day Weather Forecast

Advertisements
Track Severe Weather on mobile